14°C
Gosport, Hampshire, United Kingdom
Language:  English
Updated20/10/2018 18:15:00 
 

Nearby METAR Reports

 

EGHI - Southampton Wx Centre, United Kingdom
Distance from station: NW 15mi, 24km
Updated: 20-Oct-2018 17:50:00
Clear
Clear
 Wind from SW
Wind: SW 5 mph , 7 km/h
Temperature: 14°C
Dew Point: 8°C
Humidity: 67%
Barometer: 1030 hPa
Summary: Clear
Visibility: greater than 7 miles , 10 km
2018/10/20 16:50 EGHI 201650Z 23004KT CAVOK 14/08 Q1030
EGHH - Bournemouth Airport, United Kingdom
Distance from station: W 30mi, 49km
Updated: 20-Oct-2018 17:50:00
Clear
Clear
 Wind from S
Wind: S 3 mph , 6 km/h
Temperature: 15°C
Dew Point: 9°C
Humidity: 68%
Barometer: 1030 hPa
Summary: Clear
Visibility: greater than 7 miles , 10 km
2018/10/20 16:50 EGHH 201650Z 17003KT CAVOK 15/09 Q1030
EGVP - Middle Wallop Airfield, United Kingdom
Distance from station: NW 31mi, 49km
Updated: 20-Oct-2018 17:50:00
Clear
Clear
 Wind from W
Wind: W 5 mph , 7 km/h
Temperature: 15°C
Dew Point: 10°C
Humidity: 72%
Barometer: 1030 hPa
Clouds: Clear
Visibility: 6 miles , 10 km
2018/10/20 16:50 EGVP 201650Z AUTO 26004KT 9999 // NCD 15/10 Q1030
 
EGVO - RAF Odiham, United Kingdom
Distance from station: NNE 32mi, 52km
Updated: 20-Oct-2018 17:50:00
Clear
Clear
 Wind from SW
Wind: SW 6 mph , 9 km/h
Temperature: 15°C
Dew Point: 10°C
Humidity: 72%
Barometer: 1030 hPa
Clouds: Clear
Visibility: 6 miles , 10 km
2018/10/20 16:50 EGVO 201650Z AUTO 23005KT 9999 NCD 15/10 Q1030
EGKA - Shoreham Airport, United Kingdom
Distance from station: E 37mi, 59km
Updated: 20-Oct-2018 17:20:00
Clear
Clear
 Wind from SW
Wind: SW 6 mph , 9 km/h
Temperature: 14°C
Dew Point: 9°C
Humidity: 72%
Barometer: 1030 hPa
Summary: Clear
Visibility: greater than 7 miles , 10 km
2018/10/20 16:20 EGKA 201620Z 22005KT CAVOK 14/09 Q1030
EGDM - Boscombe Down, United Kingdom
Distance from station: NW 38mi, 61km
Updated: 20-Oct-2018 17:50:00
Clear
Clear
 Wind from W
Wind: W 6 mph , 9 km/h
Temperature: 15°C
Dew Point: 11°C
Humidity: 77%
Barometer: 1030 hPa
Clouds: Clear
Visibility: 6 miles , 10 km
2018/10/20 16:50 EGDM 201650Z AUTO 27005KT 9999 NCD 15/11 Q1030
 
EGLF - Farnborough, United Kingdom
Distance from station: NNE 38mi, 61km
Updated: 20-Oct-2018 17:50:00
Clear
Clear
 Wind from SSW
Wind: SSW 5 mph , 7 km/h
Temperature: 14°C
Dew Point: 10°C
Humidity: 77%
Barometer: 1030 hPa
Summary: Clear
Visibility: greater than 7 miles , 10 km
2018/10/20 16:50 EGLF 201650Z 21004KT CAVOK 14/10 Q1030
EGKK - Gatwick Airport, United Kingdom
Distance from station: ENE 49mi, 78km
Updated: 20-Oct-2018 17:50:00
Clear
Clear
 Wind from SSW
Wind: SSW 3 mph , 6 km/h
Temperature: 15°C
Dew Point: 10°C
Humidity: 72%
Barometer: 1030 hPa
Summary: Clear
Visibility: greater than 7 miles , 10 km
2018/10/20 16:50 EGKK 201650Z 21003KT CAVOK 15/10 Q1030
EGLL - Heathrow Airport, United Kingdom
Distance from station: NNE 57mi, 91km
Updated: 20-Oct-2018 17:50:00
Clear
Clear
 Wind from WSW
Wind: WSW 9 mph , 15 km/h
Temperature: 16°C
Dew Point: 10°C
Humidity: 68%
Barometer: 1030 hPa
Clouds: Clear
Visibility: 6 miles , 10 km
2018/10/20 16:50 EGLL 201650Z AUTO 25008KT 9999 NCD 16/10 Q1030 NOSIG
 
EGUB - RAF Benson, United Kingdom
Distance from station: N 58mi, 93km
Updated: 20-Oct-2018 17:50:00
Overcast
Overcast
 Wind from WNW
Wind: WNW 3 mph , 6 km/h
Temperature: 16°C
Dew Point: 11°C
Humidity: 72%
Barometer: 1030 hPa
Clouds: Overcast
Visibility: 6 miles , 10 km
Cloud details: Overcast 2134 m
2018/10/20 16:50 EGUB 201650Z AUTO 29003KT 9999 // OVC070/// 16/11 Q1030
EGWU - RAF Northolt, United Kingdom
Distance from station: NNE 62mi, 99km
Updated: 20-Oct-2018 17:50:00
Clear
Clear
 Wind from WSW
Wind: WSW 5 mph , 7 km/h
Temperature: 16°C
Dew Point: 10°C
Humidity: 68%
Barometer: 1030 hPa
Summary: Clear
Visibility: greater than 7 miles , 10 km
2018/10/20 16:50 EGWU 201650Z 24004KT CAVOK 16/10 Q1030 BLU NOSIG
EGKB - Biggin Hill Airport, United Kingdom
Distance from station: NE 62mi, 100km
Updated: 20-Oct-2018 17:50:00
Clear
Clear
 Wind from SSW
Wind: SSW 6 mph , 9 km/h
Temperature: 14°C
Dew Point: 9°C
Humidity: 72%
Barometer: 1031 hPa
Summary: Clear
Visibility: greater than 7 miles , 10 km
2018/10/20 16:50 EGKB 201650Z 20005KT CAVOK 14/09 Q1031
 
EGDY - RNAS Yeovilton, United Kingdom
Distance from station: WNW 66mi, 107km
Updated: 20-Oct-2018 17:50:00
Few Clouds
Few Clouds
 Wind from NNW
Wind: NNW 9 mph , 15 km/h
Temperature: 15°C
Dew Point: 11°C
Humidity: 77%
Barometer: 1031 hPa
Clouds: Few Clouds
Visibility: 6 miles , 10 km
Cloud details: Few Clouds 823 m
2018/10/20 16:50 EGDY 201650Z AUTO 33008KT 9999 FEW027/// 15/11 Q1031
EGUO - Colerne Airfield, United Kingdom
Distance from station: NW 67mi, 108km
Updated: 21-Mar-2018 08:50:00
NOT Current
Clear
Clear
 Wind from W
Wind: W 6 mph , 9 km/h
Temperature: 5°C
Wind Chill: 3°C
Dew Point: 1°C
Humidity: 76%
Barometer: 1032 hPa
Clouds: Clear
Visibility: 6 miles , 10 km
2018/03/21 08:50 EGUO 210850Z 27005KT 9999 NCD 05/01 Q1032 BLU NOSIG
EGVA - RAF Fairford, United Kingdom
Distance from station: NNW 67mi, 108km
Updated: 20-Oct-2018 17:56:00
Clear
Clear
 Wind from WSW
Wind: WSW 7 mph , 11 km/h
Clouds: Clear
Visibility: 6 miles , 10 km
2018/10/20 16:56 EGVA 201656Z AUTO 25006KT 9999 CLR M A3042 RMK AO2 SLPNO ALSTG ESTMD $
 
EGVN - RAF Brize Norton, United Kingdom
Distance from station: NNW 71mi, 114km
Updated: 20-Oct-2018 17:50:00
Clear
Clear
 Wind from W
Wind: W 5 mph , 7 km/h
Temperature: 16°C
Dew Point: 11°C
Humidity: 72%
Barometer: 1030 hPa
Summary: Clear
Visibility: greater than 7 miles , 10 km
2018/10/20 16:50 EGVN 201650Z 26004KT CAVOK 16/11 Q1030 BLU NOSIG
EGLC - London City Airport, United Kingdom
Distance from station: NE 71mi, 115km
Updated: 20-Oct-2018 17:50:00
Haze, Clear
Haze, Clear
 Wind from WSW
Wind: WSW 3 mph , 6 km/h
Temperature: 17°C
Dew Point: 9°C
Humidity: 59%
Barometer: 1030 hPa
Summary: Haze
Clouds: Clear
Visibility: 3 miles , 5 km
2018/10/20 16:50 EGLC 201650Z AUTO 24003KT 4600 HZ NCD 17/09 Q1030
EGGD - Bristol Airport, United Kingdom
Distance from station: WNW 80mi, 128km
Updated: 20-Oct-2018 17:50:00
Clear
Clear
 Wind from WSW
Wind: WSW 6 mph , 9 km/h
Temperature: 13°C
Dew Point: 12°C
Humidity: 94%
Barometer: 1031 hPa
Clouds: Clear
Visibility: 6 miles , 10 km
2018/10/20 16:50 EGGD 201650Z AUTO 25005KT 9999 NCD 13/12 Q1031
 
LFRC - Cherbourg-Maupertus Airport, France
Distance from station: S 81mi, 130km
Updated: 20-Oct-2018 18:00:00
Clear
Clear
 Wind from ENE
Wind: ENE 3 mph , 6 km/h
Temperature: 12°C
Dew Point: 9°C
Humidity: 82%
Barometer: 1030 hPa
Summary: Clear
Visibility: greater than 7 miles , 10 km
2018/10/20 17:00 LFRC 201700Z AUTO 06003KT CAVOK 12/09 Q1030 NOSIG
EGGW - Luton Airport, United Kingdom
Distance from station: NNE 82mi, 132km
Updated: 20-Oct-2018 17:50:00
Clear
Clear
 Wind from WSW
Wind: WSW 7 mph , 11 km/h
Temperature: 15°C
Dew Point: 11°C
Humidity: 77%
Barometer: 1030 hPa
Clouds: Clear
Visibility: 6 miles , 10 km
2018/10/20 16:50 EGGW 201650Z AUTO 25006KT 9999 NCD 15/11 Q1030